Time;durP1;ratioP1;P1;durP2;ratioP2;P2;SDS_P1;SDS_P2;PMS_P1;PMS_P2;Temp;Humidity;BMP_temperature;BMP_pressure;BME280_temperature;BME280_humidity;BME280_pressure;Samples;Min_cycle;Max_cycle;Signal;HPM_P1;HPM_P2
2021/07/25 00:08:14;;;;;;;15.98;8.98;;;18.10;99.90;;;;;;20704614;28;20038;-77
2021/07/25 00:18:15;;;;;;;18.90;11.30;;;18.10;99.90;;;;;;20712430;28;20145;-78
2021/07/25 00:38:21;;;;;;;11.65;8.57;;;17.80;99.90;;;;;;20649248;28;20046;-79
2021/07/25 00:48:23;;;;;;;16.10;9.10;;;17.90;99.90;;;;;;20668335;28;20479;-75
2021/07/25 00:58:24;;;;;;;13.05;8.88;;;18.00;99.90;;;;;;20640908;28;20397;-76
2021/07/25 01:08:34;;;;;;;19.07;8.67;;;18.00;99.90;;;;;;20668324;28;20042;-76
2021/07/25 01:18:46;;;;;;;15.02;9.38;;;18.00;99.90;;;;;;20649776;28;20433;-79
2021/07/25 01:28:49;;;;;;;13.95;10.00;;;17.90;99.90;;;;;;20642586;28;20042;-77
2021/07/25 01:38:53;;;;;;;14.35;9.13;;;17.90;99.90;;;;;;20647451;28;20496;-77
2021/07/25 01:48:54;;;;;;;15.38;9.38;;;17.90;99.90;;;;;;20631055;28;20045;-77
2021/07/25 01:58:56;;;;;;;15.27;9.17;;;17.80;99.90;;;;;;20662890;28;20540;-75
2021/07/25 02:08:57;;;;;;;35.58;8.68;;;17.90;99.90;;;;;;20661347;28;20037;-78
2021/07/25 02:18:58;;;;;;;16.07;9.87;;;17.90;99.90;;;;;;20645095;28;20041;-79
2021/07/25 02:28:59;;;;;;;18.30;11.93;;;17.80;99.90;;;;;;20646802;28;20097;-79
2021/07/25 02:38:59;;;;;;;14.33;9.87;;;17.40;99.90;;;;;;20664742;28;20038;-79
2021/07/25 02:49:01;;;;;;;12.43;7.50;;;17.50;99.90;;;;;;20663098;28;20441;-79
2021/07/25 02:59:01;;;;;;;17.30;8.68;;;17.70;99.90;;;;;;20663601;28;20026;-79
2021/07/25 03:09:03;;;;;;;14.43;9.83;;;17.50;99.90;;;;;;20643606;28;20464;-79
2021/07/25 03:19:03;;;;;;;17.03;11.30;;;17.60;99.90;;;;;;20669577;28;20030;-79
2021/07/25 03:29:05;;;;;;;21.93;12.77;;;17.40;99.90;;;;;;20678823;28;20045;-80
2021/07/25 03:39:12;;;;;;;21.17;10.33;;;17.40;99.90;;;;;;20678151;28;20037;-79
2021/07/25 03:49:13;;;;;;;23.63;11.05;;;17.40;99.90;;;;;;20655860;28;20093;-78
2021/07/25 03:59:15;;;;;;;;;;;17.50;99.90;;;;;;20655860;28;20034;-79
2021/07/25 04:09:16;;;;;;;17.50;12.95;;;17.60;99.90;;;;;;20671524;28;19917;-75
2021/07/25 04:19:16;;;;;;;20.93;12.70;;;17.70;99.90;;;;;;20652967;28;20038;-78
2021/07/25 04:29:18;;;;;;;24.00;12.53;;;17.60;99.90;;;;;;20668454;28;20038;-78
2021/07/25 04:39:19;;;;;;;20.33;11.83;;;17.60;99.90;;;;;;20668906;28;20030;-78
2021/07/25 04:49:23;;;;;;;23.77;12.10;;;17.60;99.90;;;;;;20650653;28;20077;-78
2021/07/25 04:59:29;;;;;;;15.07;9.75;;;17.50;99.90;;;;;;20634055;28;20038;-78
2021/07/25 05:09:30;;;;;;;20.08;10.90;;;17.60;99.90;;;;;;20649002;28;20408;-77
2021/07/25 05:19:38;;;;;;;12.83;8.10;;;17.90;99.90;;;;;;20665686;28;20038;-77
2021/07/25 05:29:39;;;;;;;19.35;11.75;;;18.20;99.90;;;;;;20665083;28;20445;-77
2021/07/25 05:39:40;;;;;;;24.57;12.73;;;18.10;99.90;;;;;;20663836;28;20042;-77
2021/07/25 05:49:41;;;;;;;21.90;13.37;;;18.10;99.90;;;;;;20663550;28;20045;-77
2021/07/25 05:59:42;;;;;;;17.67;11.50;;;18.60;99.90;;;;;;20662894;28;20626;-77
2021/07/25 06:09:42;;;;;;;15.93;10.60;;;18.70;99.90;;;;;;20662418;28;20035;-77
2021/07/25 06:19:43;;;;;;;15.33;10.27;;;18.70;99.90;;;;;;20661819;28;20511;-78
2021/07/25 06:29:44;;;;;;;9.63;7.43;;;18.80;99.90;;;;;;20661971;28;20034;-76
2021/07/25 06:39:45;;;;;;;12.10;6.53;;;18.70;99.90;;;;;;20661160;28;20503;-76
2021/07/25 06:49:46;;;;;;;13.07;6.67;;;18.90;99.90;;;;;;20663611;28;20038;-77
2021/07/25 06:59:46;;;;;;;12.40;5.70;;;19.30;99.90;;;;;;20659015;28;20045;-78
2021/07/25 07:09:47;;;;;;;10.43;6.80;;;19.50;99.90;;;;;;20675362;28;20109;-78
2021/07/25 07:19:48;;;;;;;11.23;6.33;;;19.70;99.90;;;;;;20675150;28;20054;-78
2021/07/25 07:29:50;;;;;;;13.47;7.87;;;19.60;99.90;;;;;;20671507;28;20400;-75
2021/07/25 07:39:51;;;;;;;12.95;7.75;;;19.10;99.90;;;;;;20672764;28;20034;-78
2021/07/25 07:49:52;;;;;;;18.40;9.70;;;19.00;99.90;;;;;;20674546;28;20428;-78
2021/07/25 07:59:52;;;;;;;13.20;10.23;;;18.60;99.90;;;;;;20672687;28;20093;-78
2021/07/25 08:09:53;;;;;;;15.87;11.30;;;18.50;99.90;;;;;;20690175;28;20028;-78
2021/07/25 08:19:54;;;;;;;12.53;9.17;;;18.40;99.90;;;;;;20679919;28;20030;-81
2021/07/25 08:29:55;;;;;;;15.23;9.37;;;18.40;99.90;;;;;;20695959;28;20027;-79
2021/07/25 08:39:56;;;;;;;14.37;10.30;;;18.40;99.90;;;;;;20724374;28;20196;-79
2021/07/25 08:50:01;;;;;;;14.20;9.83;;;18.20;99.90;;;;;;20702141;28;20037;-79
2021/07/25 09:00:05;;;;;;;13.00;8.57;;;18.10;99.90;;;;;;20686020;28;20048;-79
2021/07/25 09:10:18;;;;;;;11.48;7.32;;;18.20;99.90;;;;;;20709987;28;20105;-79
2021/07/25 09:20:30;;;;;;;11.25;8.25;;;18.10;99.90;;;;;;20708147;28;20146;-80
2021/07/25 09:30:32;;;;;;;19.40;10.82;;;18.50;99.90;;;;;;20678177;28;20524;-79
2021/07/25 09:40:35;;;;;;;13.40;9.40;;;18.50;99.90;;;;;;20670670;28;20452;-78
2021/07/25 09:50:36;;;;;;;12.15;7.40;;;18.50;99.90;;;;;;20674099;28;20048;-79
2021/07/25 10:00:45;;;;;;;9.30;7.20;;;18.80;99.90;;;;;;20681723;28;20128;-79
2021/07/25 10:10:48;;;;;;;11.02;6.18;;;19.10;99.90;;;;;;20687511;28;20485;-79
2021/07/25 10:21:00;;;;;;;13.02;7.25;;;19.20;99.90;;;;;;20654810;28;20233;-78
2021/07/25 10:31:03;;;;;;;8.63;6.00;;;18.70;99.90;;;;;;20667530;28;20050;-80
2021/07/25 10:41:07;;;;;;;11.75;6.35;;;18.70;99.90;;;;;;20672995;28;20034;-79
2021/07/25 10:51:11;;;;;;;6.53;4.95;;;18.80;99.90;;;;;;20642280;28;20026;-77
2021/07/25 11:01:44;;;;;;;6.63;4.95;;;18.80;99.90;;;;;;20655378;28;20113;-80
2021/07/25 11:12:03;;;;;;;9.32;5.28;;;19.00;99.90;;;;;;20655652;28;20030;-80
2021/07/25 11:22:24;;;;;;;7.20;5.47;;;19.40;99.90;;;;;;20654819;28;20204;-79
2021/07/25 11:32:38;;;;;;;9.05;4.82;;;19.20;99.90;;;;;;20664079;28;20153;-77
2021/07/25 11:42:40;;;;;;;7.60;5.50;;;19.20;99.90;;;;;;20660881;28;20599;-77
2021/07/25 11:52:40;;;;;;;11.15;6.95;;;19.40;99.90;;;;;;20653643;28;20138;-77
2021/07/25 12:02:41;;;;;;;22.43;11.57;;;19.50;99.90;;;;;;20645862;28;20073;-77
2021/07/25 12:12:44;;;;;;;8.20;5.17;;;19.70;99.90;;;;;;20657402;28;20037;-77
2021/07/25 12:22:51;;;;;;;14.27;5.75;;;20.30;99.90;;;;;;20649481;28;20584;-76
2021/07/25 12:32:51;;;;;;;5.30;3.55;;;22.80;99.90;;;;;;20656587;28;20052;-77
2021/07/25 12:42:59;;;;;;;6.33;4.27;;;22.90;99.90;;;;;;20678148;28;20050;-77
2021/07/25 12:53:21;;;;;;;4.85;2.83;;;22.20;99.90;;;;;;20679167;28;20041;-77
2021/07/25 13:03:44;;;;;;;4.93;2.95;;;22.30;99.90;;;;;;20677925;28;20054;-77
2021/07/25 13:13:47;;;;;;;4.28;2.88;;;23.90;99.90;;;;;;20678022;28;20038;-78
2021/07/25 13:23:49;;;;;;;4.80;2.58;;;25.20;99.90;;;;;;20689564;28;20042;-77
2021/07/25 13:33:50;;;;;;;3.90;2.60;;;24.50;99.90;;;;;;20684492;28;20082;-77
2021/07/25 13:43:51;;;;;;;3.05;2.35;;;25.30;99.90;;;;;;20679170;28;20461;-77
2021/07/25 13:53:53;;;;;;;3.47;2.35;;;24.40;99.90;;;;;;20662379;28;20034;-77
2021/07/25 14:03:55;;;;;;;3.70;2.63;;;24.00;99.90;;;;;;20671981;28;20053;-77
2021/07/25 14:13:56;;;;;;;;;;;24.60;99.90;;;;;;20649250;28;20038;-77
2021/07/25 14:23:59;;;;;;;6.60;2.83;;;23.40;99.90;;;;;;20637426;28;19921;-77
2021/07/25 14:34:00;;;;;;;3.72;2.80;;;23.20;99.90;;;;;;20650715;28;20030;-77
2021/07/25 14:44:01;;;;;;;7.73;2.97;;;23.70;99.90;;;;;;20615362;28;20045;-77
2021/07/25 14:54:01;;;;;;;4.57;2.87;;;24.40;99.90;;;;;;20636445;28;20416;-78
2021/07/25 15:04:02;;;;;;;4.47;2.90;;;24.50;99.90;;;;;;20637315;28;20096;-77
2021/07/25 15:14:03;;;;;;;;;;;25.20;99.90;;;;;;20644304;28;20045;-78
2021/07/25 15:24:04;;;;;;;4.13;2.67;;;24.20;99.90;;;;;;20664280;28;19913;-78
2021/07/25 15:34:05;;;;;;;4.25;2.60;;;23.00;99.90;;;;;;20650361;28;20080;-77
2021/07/25 15:44:07;;;;;;;5.23;2.60;;;22.50;99.90;;;;;;20651818;28;20686;-78
2021/07/25 15:54:08;;;;;;;21.55;10.18;;;22.20;99.90;;;;;;20650259;28;20050;-77
2021/07/25 16:04:08;;;;;;;3.43;2.57;;;21.50;99.90;;;;;;20649279;28;20042;-78
2021/07/25 16:14:10;;;;;;;17.27;8.17;;;21.10;99.90;;;;;;20658334;28;20027;-78
2021/07/25 16:24:11;;;;;;;10.27;4.95;;;21.50;99.90;;;;;;20647046;28;20472;-78
2021/07/25 16:34:11;;;;;;;6.90;3.57;;;22.20;99.90;;;;;;20630112;28;20038;-77
2021/07/25 16:44:12;;;;;;;4.87;2.60;;;22.40;99.90;;;;;;20628358;28;20022;-76
2021/07/25 16:54:13;;;;;;;4.87;2.90;;;22.40;99.90;;;;;;20645807;28;20034;-78
2021/07/25 17:04:14;;;;;;;5.30;3.30;;;22.30;99.90;;;;;;20627401;28;20469;-76
2021/07/25 17:14:15;;;;;;;6.10;3.00;;;21.60;99.90;;;;;;20625554;28;20034;-77
2021/07/25 17:24:15;;;;;;;5.67;3.03;;;21.40;99.90;;;;;;20645909;28;20489;-77
2021/07/25 17:34:16;;;;;;;5.07;3.30;;;21.40;99.90;;;;;;20642038;28;20100;-76
2021/07/25 17:44:17;;;;;;;4.37;3.00;;;21.10;99.90;;;;;;20642432;28;20038;-77
2021/07/25 17:54:19;;;;;;;4.23;2.93;;;20.80;99.90;;;;;;20632090;28;20045;-76
2021/07/25 18:04:20;;;;;;;8.55;3.30;;;20.40;99.90;;;;;;20641343;28;20045;-78
2021/07/25 18:14:21;;;;;;;10.33;3.83;;;20.00;99.90;;;;;;20641697;28;20034;-76
2021/07/25 18:24:22;;;;;;;6.20;3.87;;;19.60;99.90;;;;;;20640503;28;20169;-76
2021/07/25 18:34:23;;;;;;;6.70;4.53;;;19.40;99.90;;;;;;20768236;23;20135;-79
2021/07/25 18:44:24;;;;;;;4.73;3.63;;;19.10;99.90;;;;;;20865656;28;20044;-80
2021/07/25 18:54:25;;;;;;;5.43;3.90;;;19.00;99.90;;;;;;20839023;28;20065;-79
2021/07/25 19:04:28;;;;;;;9.17;3.77;;;19.00;99.90;;;;;;20837755;28;20052;-77
2021/07/25 19:14:29;;;;;;;6.70;4.78;;;19.00;99.90;;;;;;20831093;28;20037;-80
2021/07/25 19:24:30;;;;;;;8.30;3.57;;;18.40;99.90;;;;;;20832358;28;20151;-78
2021/07/25 19:34:31;;;;;;;8.27;3.70;;;18.50;99.90;;;;;;20823673;28;20040;-80
2021/07/25 19:44:32;;;;;;;7.17;3.47;;;18.50;99.90;;;;;;20827627;28;20035;-79
2021/07/25 19:54:33;;;;;;;8.73;3.97;;;18.00;99.90;;;;;;20826641;28;20033;-80
2021/07/25 20:04:37;;;;;;;4.37;3.00;;;18.10;99.90;;;;;;20827601;28;20041;-81
2021/07/25 20:14:43;;;;;;;6.22;4.18;;;17.90;99.90;;;;;;20824868;28;20046;-81
2021/07/25 20:24:47;;;;;;;6.13;4.05;;;17.50;99.90;;;;;;20825856;28;20040;-78
2021/07/25 20:34:48;;;;;;;6.50;4.10;;;17.20;99.90;;;;;;20826811;28;20025;-79
2021/07/25 20:44:49;;;;;;;9.23;3.70;;;17.00;99.90;;;;;;20848626;28;20156;-79
2021/07/25 20:54:50;;;;;;;5.60;3.73;;;17.00;99.90;;;;;;20863580;28;20034;-79
2021/07/25 21:04:51;;;;;;;5.87;3.87;;;16.90;99.90;;;;;;20863360;28;20557;-78
2021/07/25 21:14:52;;;;;;;9.30;4.43;;;16.90;99.90;;;;;;20837505;28;20498;-79
2021/07/25 21:24:53;;;;;;;10.30;4.20;;;16.60;99.90;;;;;;20824247;28;20106;-80
2021/07/25 21:34:54;;;;;;;8.00;3.90;;;16.50;99.90;;;;;;20821966;28;20030;-82
2021/07/25 21:44:54;;;;;;;17.17;4.10;;;16.30;99.90;;;;;;20820516;28;20033;-80
2021/07/25 21:54:55;;;;;;;7.47;4.47;;;16.30;99.90;;;;;;20822790;28;20057;-79
2021/07/25 22:04:56;;;;;;;7.90;3.70;;;16.40;99.90;;;;;;20818007;28;20033;-79
2021/07/25 22:14:58;;;;;;;9.70;4.03;;;16.40;99.90;;;;;;20814002;28;20034;-81
2021/07/25 22:24:59;;;;;;;4.82;3.55;;;16.50;99.90;;;;;;20835989;28;20427;-80
2021/07/25 22:34:59;;;;;;;19.43;3.90;;;15.90;99.90;;;;;;20841319;28;20028;-81
2021/07/25 22:45:01;;;;;;;10.33;4.97;;;15.90;99.90;;;;;;20824760;28;20045;-81
2021/07/25 22:55:02;;;;;;;9.50;5.70;;;15.50;99.90;;;;;;20840574;28;20029;-80
2021/07/25 23:05:05;;;;;;;4.80;3.93;;;15.60;99.90;;;;;;20839999;28;20175;-83
2021/07/25 23:15:06;;;;;;;11.50;4.13;;;15.60;99.90;;;;;;20840397;28;20053;-81
2021/07/25 23:25:08;;;;;;;;;;;15.80;99.90;;;;;;20841220;28;20443;-82
2021/07/25 23:35:09;;;;;;;7.28;3.35;;;15.80;99.90;;;;;;20848105;28;19935;-80
2021/07/25 23:45:09;;;;;;;10.20;4.60;;;15.70;99.90;;;;;;20857031;28;20030;-82
2021/07/25 23:55:11;;;;;;;13.23;4.57;;;15.80;99.90;;;;;;20855507;28;20032;-80
